createdAt,value
2022-10-13T00:00:26.094Z,7.19
2022-10-13T00:05:45.550Z,7.15
2022-10-13T00:11:04.532Z,7.25
2022-10-13T00:16:23.690Z,7.35
2022-10-13T00:21:42.768Z,7.45
2022-10-13T00:27:02.105Z,7.42
2022-10-13T00:32:21.202Z,7.45
2022-10-13T00:37:40.542Z,7.48
2022-10-13T00:42:59.477Z,7.46
2022-10-13T00:48:18.587Z,7.36
2022-10-13T00:53:38.325Z,7.23
2022-10-13T00:58:57.331Z,7.15
2022-10-13T01:04:16.964Z,7.16
2022-10-13T01:09:35.748Z,7.23
2022-10-13T01:14:55.458Z,7.29
2022-10-13T01:20:14.633Z,7.36
2022-10-13T01:25:33.645Z,7.4
2022-10-13T01:30:53.284Z,7.38
2022-10-13T01:36:12.676Z,7.3
2022-10-13T01:41:31.758Z,7.22
2022-10-13T01:46:51.339Z,7.12
2022-10-13T01:52:10.251Z,7.05
2022-10-13T01:57:29.393Z,6.91
2022-10-13T02:02:48.225Z,6.83
2022-10-13T02:08:07.270Z,6.77
2022-10-13T02:13:26.197Z,6.64
2022-10-13T02:18:45.723Z,6.53
2022-10-13T02:24:04.258Z,6.46
2022-10-13T02:29:23.099Z,6.5
2022-10-13T02:34:42.659Z,6.46
2022-10-13T02:40:01.930Z,6.5
2022-10-13T02:45:20.708Z,6.58
2022-10-13T02:50:39.907Z,6.7
2022-10-13T02:55:59.381Z,6.76
2022-10-13T03:01:18.926Z,6.83
2022-10-13T03:06:38.548Z,6.83
2022-10-13T03:13:12.710Z,6.81
2022-10-13T03:17:18.765Z,6.78
2022-10-13T03:22:38.089Z,6.76
2022-10-13T03:27:57.396Z,6.73
2022-10-13T03:36:30.425Z,6.71
2022-10-13T03:38:36.256Z,6.68
2022-10-13T03:43:55.599Z,6.64
2022-10-13T03:49:14.571Z,6.66
2022-10-13T03:54:34.336Z,6.61
2022-10-13T03:59:53.683Z,6.6
2022-10-13T04:05:12.445Z,6.57
2022-10-13T04:10:31.867Z,6.64
2022-10-13T04:15:51.501Z,6.61
2022-10-13T04:21:10.504Z,6.56
2022-10-13T04:29:43.617Z,6.53
2022-10-13T04:34:00.130Z,6.53
2022-10-13T04:38:16.840Z,6.54
2022-10-13T04:42:27.245Z,6.54
2022-10-13T04:47:46.516Z,6.64
2022-10-13T04:53:06.182Z,6.6
2022-10-13T04:58:25.277Z,6.77
2022-10-13T05:03:44.493Z,6.9
2022-10-13T05:09:03.530Z,6.9
2022-10-13T05:14:22.434Z,6.92
2022-10-13T05:19:42.058Z,6.99
2022-10-13T05:25:01.575Z,7.09
2022-10-13T05:30:32.151Z,7.15
2022-10-13T05:35:40.253Z,7.18
2022-10-13T05:41:00.136Z,7.26
2022-10-13T05:46:19.103Z,7.29
2022-10-13T05:51:38.359Z,7.32
2022-10-13T06:00:43.864Z,7.39
2022-10-13T06:02:16.762Z,7.43
2022-10-13T06:07:35.808Z,7.49
2022-10-13T06:12:53.690Z,7.63
2022-10-13T06:18:13.196Z,7.91
2022-10-13T06:23:32.269Z,7.91
2022-10-13T06:28:52.563Z,8.1
2022-10-13T06:34:09.974Z,8.07
2022-10-13T06:39:28.833Z,8.18
2022-10-13T06:44:48.222Z,8.22
2022-10-13T06:50:06.975Z,8.21
2022-10-13T06:55:25.396Z,8.45
2022-10-13T07:00:44.996Z,8.7
2022-10-13T07:06:04.013Z,8.83
2022-10-13T07:11:23.149Z,8.82
2022-10-13T07:16:41.963Z,8.85
2022-10-13T07:22:01.456Z,8.89
2022-10-13T07:27:20.773Z,9.1
2022-10-13T07:32:39.550Z,9.27
2022-10-13T07:39:13.730Z,9.52
2022-10-13T07:43:18.915Z,9.88
2022-10-13T07:48:38.089Z,10.32
2022-10-13T07:53:57.460Z,10.56
2022-10-13T07:59:16.535Z,10.87
2022-10-13T08:04:35.980Z,11.28
2022-10-13T08:09:55.617Z,11.42
2022-10-13T08:15:14.819Z,11.69
2022-10-13T08:23:47.901Z,11.91
2022-10-13T08:31:12.100Z,12.24
2022-10-13T08:36:31.223Z,12.48
2022-10-13T08:41:50.122Z,12.75
2022-10-13T08:47:09.379Z,13.28
2022-10-13T08:52:28.965Z,14.15
2022-10-13T08:57:48.577Z,14.92
2022-10-13T09:03:07.894Z,15.15
2022-10-13T09:08:26.765Z,15.07
2022-10-13T09:13:45.793Z,15.14
2022-10-13T09:19:03.447Z,15.28
2022-10-13T09:24:22.659Z,15.77
2022-10-13T09:29:41.731Z,16.67
2022-10-13T09:35:00.423Z,17.44
2022-10-13T09:40:19.771Z,17.78
2022-10-13T09:45:39.348Z,18.1
2022-10-13T09:52:13.530Z,18.35
2022-10-13T09:56:18.875Z,18.35
2022-10-13T10:01:37.994Z,18.62
2022-10-13T10:06:57.022Z,18.84
2022-10-13T10:12:15.792Z,18.9
2022-10-13T10:17:34.644Z,19.01
2022-10-13T10:22:52.625Z,18.91
2022-10-13T10:28:12.075Z,18.28
2022-10-13T10:33:31.044Z,17.81
2022-10-13T10:38:50.707Z,17.45
2022-10-13T10:45:24.901Z,17.41
2022-10-13T10:49:30.368Z,17.5
2022-10-13T10:54:49.631Z,17.58
2022-10-13T11:00:08.557Z,17.5
2022-10-13T11:05:27.061Z,17.36
2022-10-13T11:10:45.915Z,17.19
2022-10-13T11:16:05.057Z,17.17
2022-10-13T11:21:24.667Z,17.27
2022-10-13T11:26:43.775Z,17.06
2022-10-13T11:33:17.912Z,16.89
2022-10-13T11:37:22.552Z,16.69
2022-10-13T11:42:42.090Z,16.58
2022-10-13T11:48:00.856Z,16.58
2022-10-13T11:53:19.976Z,16.51
2022-10-13T11:58:39.616Z,16.42
2022-10-13T12:03:58.783Z,16.34
2022-10-13T12:09:17.743Z,16.18
2022-10-13T12:19:54.510Z,15.82
2022-10-13T12:25:13.793Z,15.7
2022-10-13T12:30:32.947Z,15.73
2022-10-13T12:35:51.765Z,15.79
2022-10-13T12:41:11.616Z,15.91
2022-10-13T12:47:45.771Z,16.31
2022-10-13T12:51:52.167Z,16.75
2022-10-13T12:57:11.338Z,16.67
2022-10-13T13:02:29.139Z,16.44
2022-10-13T13:07:48.292Z,16.25
2022-10-13T13:13:07.060Z,16.11
2022-10-13T13:19:41.208Z,15.91
2022-10-13T13:23:49.473Z,15.73
2022-10-13T13:29:05.732Z,15.77
2022-10-13T13:34:25.480Z,15.93
2022-10-13T13:39:44.396Z,16.17
2022-10-13T13:45:04.103Z,16.37
2022-10-13T13:50:22.780Z,16.85
2022-10-13T13:55:41.495Z,17.41
2022-10-13T14:01:01.052Z,17.92
2022-10-13T14:06:19.841Z,17.7
2022-10-13T14:11:39.130Z,17.07
2022-10-13T14:16:57.297Z,16.67
2022-10-13T14:22:16.840Z,16.42
2022-10-13T14:27:35.740Z,16.34
2022-10-13T14:32:56.100Z,16.25
2022-10-13T14:38:15.261Z,16.1
2022-10-13T14:43:34.457Z,15.96
2022-10-13T14:48:52.887Z,15.89
2022-10-13T14:54:13.009Z,15.82
2022-10-13T15:00:47.171Z,15.76
2022-10-13T15:10:12.615Z,15.69
2022-10-13T15:15:30.837Z,15.7
2022-10-13T15:20:49.802Z,15.67
2022-10-13T15:26:08.595Z,15.63
2022-10-13T15:31:27.794Z,15.58
2022-10-13T15:36:47.603Z,15.55
2022-10-13T15:42:07.249Z,15.42
2022-10-13T15:48:41.390Z,15.32
2022-10-13T15:52:56.883Z,15.21
2022-10-13T15:58:06.238Z,15.12
2022-10-13T16:03:24.309Z,15.04
2022-10-13T16:08:44.071Z,14.88
2022-10-13T16:14:02.841Z,14.77
2022-10-13T16:16:19.334Z,14.85
2022-10-13T16:19:56.464Z,14.68
2022-10-13T16:25:16.825Z,14.64
2022-10-13T16:30:34.893Z,14.56
2022-10-13T16:35:54.518Z,14.55
2022-10-13T16:42:28.700Z,14.46
2022-10-13T16:46:34.414Z,14.37
2022-10-13T16:51:51.469Z,14.3
2022-10-13T16:57:11.869Z,14.2
2022-10-13T17:02:30.643Z,14.1
2022-10-13T17:07:49.780Z,14.04
2022-10-13T17:13:09.357Z,13.89
2022-10-13T17:18:28.358Z,13.78
2022-10-13T17:23:48.898Z,13.77
2022-10-13T17:29:07.934Z,13.71
2022-10-13T17:34:27.098Z,13.58
2022-10-13T17:39:46.521Z,13.33
2022-10-13T17:45:05.405Z,13.16
2022-10-13T17:50:23.525Z,13.16
2022-10-13T17:55:43.564Z,13.1
2022-10-13T18:01:12.755Z,13.13
2022-10-13T18:06:22.311Z,13.14
2022-10-13T18:11:44.365Z,13.16
2022-10-13T18:17:00.238Z,13.16
2022-10-13T18:23:34.444Z,13.16
2022-10-13T18:27:40.486Z,12.99
2022-10-13T18:33:00.070Z,13
2022-10-13T18:38:18.167Z,13
2022-10-13T18:43:37.059Z,12.96
2022-10-13T18:48:55.686Z,12.8
2022-10-13T18:54:15.828Z,12.7
2022-10-13T18:59:35.488Z,12.63
2022-10-13T19:06:09.664Z,12.59
2022-10-13T19:15:33.984Z,12.49
2022-10-13T19:20:52.060Z,12.38
2022-10-13T19:26:14.724Z,12.35
2022-10-13T19:31:30.618Z,12.39
2022-10-13T19:36:50.158Z,12.37
2022-10-13T19:42:09.013Z,12.35
2022-10-13T19:47:27.815Z,12.41
2022-10-13T19:52:47.404Z,12.45
2022-10-13T19:59:21.580Z,12.56
2022-10-13T20:03:26.325Z,12.73
2022-10-13T20:08:44.083Z,12.88
2022-10-13T20:15:42.664Z,12.97
2022-10-13T20:19:23.750Z,12.79
2022-10-13T20:24:43.546Z,12.62
2022-10-13T20:30:02.412Z,12.63
2022-10-13T20:35:21.542Z,12.7
2022-10-13T20:40:41.026Z,12.78
2022-10-13T20:46:00.656Z,12.86
2022-10-13T20:51:19.998Z,12.86
2022-10-13T20:56:39.338Z,12.82
2022-10-13T21:01:59.101Z,12.72
2022-10-13T21:07:17.846Z,12.59
2022-10-13T21:12:36.422Z,12.58
2022-10-13T21:17:55.530Z,12.58
2022-10-13T21:23:14.743Z,12.63
2022-10-13T21:31:47.827Z,12.68
2022-10-13T21:33:53.190Z,12.73
2022-10-13T21:39:12.708Z,12.8
2022-10-13T21:44:31.817Z,12.88
2022-10-13T21:49:50.598Z,12.9
2022-10-13T21:55:09.893Z,12.92
2022-10-13T22:00:28.923Z,12.92
2022-10-13T22:05:48.015Z,12.9
2022-10-13T22:11:06.734Z,12.89
2022-10-13T22:16:25.469Z,12.83
2022-10-13T22:21:44.256Z,12.82
2022-10-13T22:27:02.977Z,12.8
2022-10-13T22:32:22.384Z,12.8
2022-10-13T22:37:40.297Z,12.79
2022-10-13T22:42:59.598Z,12.86
2022-10-13T22:48:19.309Z,12.9
2022-10-13T22:54:53.470Z,12.92
2022-10-13T22:58:58.897Z,12.93
2022-10-13T23:04:18.181Z,12.93
2022-10-13T23:09:37.747Z,12.89
2022-10-13T23:14:56.597Z,12.86
2022-10-13T23:20:15.433Z,12.89
2022-10-13T23:25:35.160Z,12.86
2022-10-13T23:30:54.890Z,12.8
2022-10-13T23:36:13.970Z,12.75
2022-10-13T23:41:45.068Z,12.7
2022-10-13T23:46:51.764Z,12.66
2022-10-13T23:52:11.225Z,12.63
2022-10-13T23:57:29.410Z,12.63
